Time;durP1;ratioP1;P1;durP2;ratioP2;P2;SDS_P1;SDS_P2;PMS_P1;PMS_P2;Temp;Humidity;BMP_temperature;BMP_pressure;BME280_temperature;BME280_humidity;BME280_pressure;Samples;Min_cycle;Max_cycle;Signal;HPM_P1;HPM_P2
2022/06/07 00:01:09;;;;;;;6.60;0.50;;;12.20;99.90;;;;;;5063565;28;20540;-69
2022/06/07 00:03:35;;;;;;;1.23;0.43;;;12.20;99.90;;;;;;5061193;28;20029;-68
2022/06/07 00:06:01;;;;;;;3.28;0.75;;;12.20;99.90;;;;;;5062798;28;20025;-68
2022/06/07 00:08:28;;;;;;;1.05;0.47;;;12.20;99.90;;;;;;5063391;28;20063;-69
2022/06/07 00:10:53;;;;;;;0.73;0.28;;;12.20;99.90;;;;;;5060536;28;20036;-69
2022/06/07 00:13:19;;;;;;;1.33;0.45;;;12.20;99.90;;;;;;5062945;28;20029;-69
2022/06/07 00:15:45;;;;;;;1.38;0.50;;;12.20;99.90;;;;;;5060884;28;20052;-68
2022/06/07 00:18:11;;;;;;;1.30;0.43;;;12.20;99.90;;;;;;5062958;28;20100;-69
2022/06/07 00:20:39;;;;;;;0.47;0.22;;;12.20;99.90;;;;;;5062166;28;20089;-69
2022/06/07 00:23:08;;;;;;;0.80;0.50;;;12.20;99.90;;;;;;5062476;28;20060;-69
2022/06/07 00:25:34;;;;;;;1.20;0.43;;;12.20;99.90;;;;;;5063424;28;20025;-69
2022/06/07 00:28:00;;;;;;;0.47;0.20;;;12.20;99.90;;;;;;5061938;28;20488;-68
2022/06/07 00:30:27;;;;;;;1.45;0.60;;;12.20;99.90;;;;;;5063620;28;20029;-68
2022/06/07 00:32:53;;;;;;;0.68;0.57;;;12.20;99.90;;;;;;5061932;28;20026;-68
2022/06/07 00:35:19;;;;;;;0.43;0.32;;;12.20;99.90;;;;;;5064535;28;20056;-69
2022/06/07 00:37:45;;;;;;;2.13;0.98;;;12.20;99.90;;;;;;5063764;28;20396;-69
2022/06/07 00:40:12;;;;;;;1.25;0.63;;;12.20;99.90;;;;;;5064321;28;20032;-69
2022/06/07 00:42:37;;;;;;;2.05;0.95;;;12.20;99.90;;;;;;5064708;28;20041;-69
2022/06/07 00:45:04;;;;;;;3.05;0.82;;;12.20;99.90;;;;;;5063551;28;20029;-69
2022/06/07 00:47:31;;;;;;;1.25;0.30;;;12.30;99.90;;;;;;5064981;28;20021;-68
2022/06/07 00:50:15;;;;;;;2.25;0.95;;;12.30;99.90;;;;;;5061778;28;20221;-69
2022/06/07 00:52:40;;;;;;;0.80;0.65;;;12.30;99.90;;;;;;5061263;28;20092;-69
2022/06/07 00:55:08;;;;;;;1.27;0.73;;;12.30;99.90;;;;;;5061508;28;20045;-69
2022/06/07 00:57:34;;;;;;;0.63;0.40;;;12.30;99.90;;;;;;5061670;28;20025;-68
2022/06/07 01:00:00;;;;;;;1.52;0.82;;;12.30;99.90;;;;;;5061102;28;20025;-68
2022/06/07 01:02:25;;;;;;;1.83;1.02;;;12.30;99.90;;;;;;5060637;28;20044;-68
2022/06/07 01:04:51;;;;;;;1.27;0.65;;;12.30;99.90;;;;;;5062596;28;20093;-69
2022/06/07 01:12:47;;;;;;;0.90;0.63;;;12.40;99.90;;;;;;5062746;28;20112;-68
2022/06/07 01:15:13;;;;;;;1.08;0.50;;;12.40;99.90;;;;;;5060438;28;20036;-68
2022/06/07 01:17:38;;;;;;;0.85;0.40;;;12.40;99.90;;;;;;5062116;28;20057;-68
2022/06/07 01:20:05;;;;;;;2.13;0.60;;;12.40;99.90;;;;;;5060399;28;20048;-68
2022/06/07 01:22:31;;;;;;;1.45;0.65;;;12.40;99.90;;;;;;5062030;28;20033;-69
2022/06/07 01:24:57;;;;;;;0.98;0.40;;;12.40;99.90;;;;;;5060471;28;20051;-68
2022/06/07 01:27:23;;;;;;;3.35;1.05;;;12.50;99.90;;;;;;5059984;28;20033;-69
2022/06/07 01:29:49;;;;;;;1.65;0.70;;;12.50;99.90;;;;;;5061774;28;20056;-69
2022/06/07 01:32:14;;;;;;;1.75;0.73;;;12.50;99.90;;;;;;5060378;28;20029;-69
2022/06/07 01:34:42;;;;;;;3.28;1.23;;;12.50;99.90;;;;;;5062270;28;20504;-68
2022/06/07 01:37:10;;;;;;;1.25;0.68;;;12.50;99.90;;;;;;5060021;28;20425;-69
2022/06/07 01:42:23;;;;;;;1.25;0.50;;;12.50;99.90;;;;;;5061370;28;20039;-69
2022/06/07 01:44:50;;;;;;;0.73;0.40;;;12.50;99.90;;;;;;5060510;28;20037;-68
2022/06/07 01:47:22;;;;;;;2.05;0.88;;;12.60;99.90;;;;;;5061775;28;20024;-67
2022/06/07 01:49:49;;;;;;;0.68;0.32;;;12.60;99.90;;;;;;5059648;28;20021;-67
2022/06/07 01:52:17;;;;;;;2.03;0.80;;;12.60;99.90;;;;;;5061806;28;20373;-68
2022/06/07 01:54:43;;;;;;;2.88;1.63;;;12.60;99.90;;;;;;5060101;28;20041;-68
2022/06/07 01:57:09;;;;;;;2.30;1.05;;;12.60;99.90;;;;;;5061145;28;20029;-68
2022/06/07 01:59:36;;;;;;;2.15;0.95;;;12.50;99.90;;;;;;5059591;28;20484;-68
2022/06/07 02:02:02;;;;;;;1.90;0.88;;;12.60;99.90;;;;;;5060503;28;20009;-68
2022/06/07 02:04:28;;;;;;;1.33;0.57;;;12.60;99.90;;;;;;5061779;28;20032;-68
2022/06/07 02:06:53;;;;;;;1.77;1.10;;;12.60;99.90;;;;;;5059481;28;20036;-68
2022/06/07 02:09:19;;;;;;;1.17;0.45;;;12.50;99.90;;;;;;5061642;28;20025;-67
2022/06/07 02:11:45;;;;;;;0.85;0.38;;;12.60;99.90;;;;;;5059975;28;20032;-68
2022/06/07 02:14:12;;;;;;;1.55;0.75;;;12.60;99.90;;;;;;5060959;28;20021;-68
2022/06/07 02:16:38;;;;;;;1.80;0.68;;;12.60;99.90;;;;;;5060573;28;20017;-68
2022/06/07 02:19:05;;;;;;;2.03;0.93;;;12.60;99.90;;;;;;5058357;28;20021;-68
2022/06/07 02:21:32;;;;;;;0.85;0.43;;;12.60;99.90;;;;;;5061375;28;20084;-67
2022/06/07 02:23:58;;;;;;;1.80;0.88;;;12.60;99.90;;;;;;5058924;28;20382;-68
2022/06/07 02:26:29;;;;;;;1.38;0.70;;;12.60;99.90;;;;;;5061548;28;20027;-68
2022/06/07 02:29:03;;;;;;;1.77;0.73;;;12.60;99.90;;;;;;5059678;28;20021;-67
2022/06/07 02:31:32;;;;;;;1.65;0.95;;;12.60;99.90;;;;;;5060703;28;20037;-68
2022/06/07 02:34:00;;;;;;;0.77;0.35;;;12.60;99.90;;;;;;5060806;28;20021;-68
2022/06/07 02:36:28;;;;;;;2.10;1.10;;;12.60;99.90;;;;;;5059743;28;20029;-68
2022/06/07 02:38:55;;;;;;;0.90;0.65;;;12.60;99.90;;;;;;5065126;28;20495;-67
2022/06/07 02:41:23;;;;;;;5.03;2.20;;;12.60;99.90;;;;;;5063141;28;20033;-67
2022/06/07 02:43:48;;;;;;;1.77;0.75;;;12.60;99.90;;;;;;5065082;28;20024;-68
2022/06/07 02:46:14;;;;;;;2.85;0.95;;;12.60;99.90;;;;;;5062425;28;20021;-67
2022/06/07 02:48:40;;;;;;;2.95;1.17;;;12.60;99.90;;;;;;5064166;28;20033;-68
2022/06/07 02:51:06;;;;;;;0.98;0.40;;;12.60;99.90;;;;;;5064756;28;20021;-68
2022/06/07 02:53:32;;;;;;;1.52;1.10;;;12.60;99.90;;;;;;5063471;28;20025;-68
2022/06/07 02:55:57;;;;;;;3.83;1.27;;;12.60;99.90;;;;;;5063805;28;20108;-68
2022/06/07 02:58:24;;;;;;;1.73;0.82;;;12.60;99.90;;;;;;5062835;28;20025;-68
2022/06/07 03:00:50;;;;;;;0.65;0.40;;;12.60;99.90;;;;;;5065015;28;20013;-69
2022/06/07 03:03:16;;;;;;;1.85;1.20;;;12.60;99.90;;;;;;5063341;28;20017;-68
2022/06/07 03:05:42;;;;;;;0.63;0.30;;;12.60;99.90;;;;;;5062764;28;20043;-68
2022/06/07 03:08:08;;;;;;;0.90;0.50;;;12.60;99.90;;;;;;5064089;28;20029;-68
2022/06/07 03:10:35;;;;;;;2.40;0.98;;;12.60;99.90;;;;;;5063343;28;20080;-67
2022/06/07 03:13:00;;;;;;;1.65;0.70;;;12.60;99.90;;;;;;5064708;28;20036;-69
2022/06/07 03:15:28;;;;;;;2.65;1.33;;;12.60;99.90;;;;;;5062536;28;20041;-69
2022/06/07 03:17:54;;;;;;;0.90;0.40;;;12.60;99.90;;;;;;5062909;28;20025;-68
2022/06/07 03:20:20;;;;;;;2.42;0.95;;;12.60;99.90;;;;;;5062967;28;20032;-68
2022/06/07 03:22:46;;;;;;;1.80;0.80;;;12.60;99.90;;;;;;5063921;28;20033;-68
2022/06/07 03:25:11;;;;;;;2.35;1.08;;;12.60;99.90;;;;;;5063393;28;20054;-68
2022/06/07 03:27:39;;;;;;;3.15;1.10;;;12.60;99.90;;;;;;5063027;28;20024;-70
2022/06/07 03:30:08;;;;;;;1.13;0.50;;;12.60;99.90;;;;;;5064323;28;20040;-68
2022/06/07 03:32:34;;;;;;;2.05;0.85;;;12.60;99.90;;;;;;5062298;28;20020;-68
2022/06/07 03:35:00;;;;;;;0.60;0.30;;;12.60;99.90;;;;;;5064291;28;20493;-68
2022/06/07 03:37:25;;;;;;;1.92;0.90;;;12.60;99.90;;;;;;5061339;28;20021;-68
2022/06/07 03:39:51;;;;;;;1.73;0.68;;;12.60;99.90;;;;;;5063707;28;20428;-68
2022/06/07 03:42:18;;;;;;;0.95;0.45;;;12.60;99.90;;;;;;5063148;28;20017;-68
2022/06/07 03:44:48;;;;;;;1.35;0.60;;;12.70;99.90;;;;;;5061362;28;20027;-68
2022/06/07 03:47:20;;;;;;;1.02;0.75;;;12.60;99.90;;;;;;5064092;28;20040;-69
2022/06/07 03:49:46;;;;;;;2.28;0.88;;;12.60;99.90;;;;;;5061167;28;20166;-67
2022/06/07 03:52:12;;;;;;;0.57;0.40;;;12.60;99.90;;;;;;5063955;28;20021;-68
2022/06/07 03:54:39;;;;;;;2.97;0.50;;;12.60;99.90;;;;;;5062286;28;20056;-68
2022/06/07 03:57:06;;;;;;;0.88;0.43;;;12.60;99.90;;;;;;5063310;28;20029;-69
2022/06/07 03:59:32;;;;;;;1.98;0.95;;;12.70;99.90;;;;;;5063069;28;20033;-68
2022/06/07 04:01:58;;;;;;;1.75;1.02;;;12.70;99.90;;;;;;5062338;28;20029;-68
2022/06/07 04:04:23;;;;;;;1.83;0.50;;;12.60;99.90;;;;;;5063860;28;20021;-68
2022/06/07 04:09:39;;;;;;;2.10;0.82;;;12.60;99.90;;;;;;5063726;28;20124;-68
2022/06/07 04:12:14;;;;;;;2.00;0.70;;;12.60;99.90;;;;;;5062403;28;20035;-68
2022/06/07 04:14:41;;;;;;;3.40;1.25;;;12.70;99.90;;;;;;5062174;28;20040;-68
2022/06/07 04:17:07;;;;;;;0.73;0.40;;;12.70;99.90;;;;;;5063268;28;20029;-67
2022/06/07 04:19:34;;;;;;;2.60;1.05;;;12.70;99.90;;;;;;5061001;28;20035;-68
2022/06/07 04:22:00;;;;;;;1.33;0.82;;;12.70;99.90;;;;;;5063601;28;20021;-68
2022/06/07 04:24:26;;;;;;;3.42;1.23;;;12.70;99.90;;;;;;5061336;28;20079;-68
2022/06/07 04:26:51;;;;;;;1.90;1.33;;;12.70;99.90;;;;;;5063063;28;20025;-68
2022/06/07 04:29:17;;;;;;;1.25;0.50;;;12.70;99.90;;;;;;5060789;28;20029;-67
2022/06/07 04:31:43;;;;;;;2.08;0.55;;;12.70;99.90;;;;;;5062207;28;20025;-69
2022/06/07 04:34:09;;;;;;;0.85;0.40;;;12.70;99.90;;;;;;5062821;28;20025;-68
2022/06/07 04:36:36;;;;;;;2.28;1.25;;;12.70;99.90;;;;;;5061483;28;20043;-67
2022/06/07 04:39:04;;;;;;;0.75;0.38;;;12.70;99.90;;;;;;5061704;28;20101;-68
2022/06/07 04:41:29;;;;;;;1.63;0.40;;;12.70;99.90;;;;;;5061121;28;20074;-68
2022/06/07 04:43:56;;;;;;;2.17;1.00;;;12.70;99.90;;;;;;5062835;28;20064;-68
2022/06/07 04:46:23;;;;;;;1.42;0.45;;;12.70;99.90;;;;;;5061811;28;20017;-67
2022/06/07 04:48:49;;;;;;;2.30;1.05;;;12.70;99.90;;;;;;5061601;28;20025;-68
2022/06/07 04:51:24;;;;;;;1.08;0.60;;;12.70;99.90;;;;;;5062558;28;20021;-68
2022/06/07 04:53:51;;;;;;;2.15;0.75;;;12.70;99.90;;;;;;5060737;28;20033;-69
2022/06/07 04:56:23;;;;;;;2.35;1.20;;;12.70;99.90;;;;;;5062868;28;20167;-68
2022/06/07 04:58:49;;;;;;;1.08;0.68;;;12.70;99.90;;;;;;5059520;28;20111;-67
2022/06/07 05:01:18;;;;;;;2.70;1.77;;;12.70;99.90;;;;;;5061527;28;20237;-68
2022/06/07 05:03:44;;;;;;;1.65;0.40;;;12.70;99.90;;;;;;5061721;28;20021;-68
2022/06/07 05:06:26;;;;;;;1.17;0.60;;;12.80;99.90;;;;;;5061295;28;20025;-68
2022/06/07 05:08:55;;;;;;;1.02;0.60;;;12.80;99.90;;;;;;5062736;28;20029;-68
2022/06/07 05:11:21;;;;;;;3.17;1.35;;;12.80;99.90;;;;;;5060514;28;20435;-68
2022/06/07 05:13:47;;;;;;;1.35;0.60;;;12.80;99.90;;;;;;5060772;28;20101;-68
2022/06/07 05:16:12;;;;;;;0.98;0.55;;;12.80;99.90;;;;;;5059440;28;20039;-69
2022/06/07 05:18:39;;;;;;;2.85;1.08;;;12.80;99.90;;;;;;5061299;28;20071;-68
2022/06/07 05:21:09;;;;;;;1.58;0.75;;;12.80;99.90;;;;;;5061909;28;20029;-68
2022/06/07 05:23:35;;;;;;;2.03;0.90;;;12.80;99.90;;;;;;5060309;28;20053;-68
2022/06/07 05:26:27;;;;;;;1.10;0.40;;;12.80;99.90;;;;;;5060890;28;20021;-68
2022/06/07 05:28:53;;;;;;;2.00;1.20;;;12.90;99.90;;;;;;5060596;28;20029;-68
2022/06/07 05:31:19;;;;;;;3.25;1.85;;;12.90;99.90;;;;;;5061660;28;20021;-68
2022/06/07 05:33:45;;;;;;;0.75;0.45;;;12.90;99.90;;;;;;5061493;28;20116;-68
2022/06/07 05:36:10;;;;;;;0.85;0.38;;;13.00;99.90;;;;;;5059073;28;20047;-68
2022/06/07 05:38:36;;;;;;;0.95;0.40;;;13.00;99.90;;;;;;5061932;28;20088;-68
2022/06/07 05:41:02;;;;;;;1.55;0.52;;;12.90;99.90;;;;;;5059877;28;20524;-69
2022/06/07 05:43:28;;;;;;;2.00;1.13;;;13.00;99.90;;;;;;5061981;28;20404;-69
2022/06/07 05:45:55;;;;;;;2.05;0.60;;;13.00;99.90;;;;;;5060133;28;20358;-68
2022/06/07 05:48:21;;;;;;;0.52;0.40;;;13.00;99.90;;;;;;5061016;28;20036;-68
2022/06/07 05:50:53;;;;;;;1.00;0.45;;;13.00;99.90;;;;;;5060832;28;20033;-68
2022/06/07 05:53:19;;;;;;;1.23;0.60;;;13.00;99.90;;;;;;5060311;28;20021;-68
2022/06/07 05:55:46;;;;;;;1.15;0.60;;;13.00;99.90;;;;;;5061638;28;20103;-69
2022/06/07 05:58:12;;;;;;;2.40;1.00;;;13.00;99.90;;;;;;5059681;28;20037;-68
2022/06/07 06:00:38;;;;;;;1.02;0.55;;;12.90;99.90;;;;;;5061825;28;20048;-68
2022/06/07 06:03:05;;;;;;;1.30;0.63;;;12.90;99.90;;;;;;5060198;28;20074;-69
2022/06/07 06:05:33;;;;;;;1.02;0.57;;;12.90;99.90;;;;;;5061141;28;20029;-69
2022/06/07 06:10:43;;;;;;;0.98;0.40;;;12.90;99.90;;;;;;5059843;28;20047;-69
2022/06/07 06:13:09;;;;;;;1.23;0.50;;;12.90;99.90;;;;;;5060289;28;20033;-69
2022/06/07 06:15:35;;;;;;;2.15;0.82;;;12.90;99.90;;;;;;5059237;28;20044;-69
2022/06/07 06:18:02;;;;;;;1.05;0.50;;;12.90;99.90;;;;;;5060846;28;20072;-68
2022/06/07 06:20:27;;;;;;;1.02;0.45;;;12.90;99.90;;;;;;5060052;28;20021;-68
2022/06/07 06:22:53;;;;;;;1.33;0.55;;;12.90;99.90;;;;;;5060500;28;20193;-68
2022/06/07 06:25:19;;;;;;;0.75;0.30;;;12.80;99.90;;;;;;5059386;28;20048;-68
2022/06/07 06:27:44;;;;;;;1.02;0.50;;;12.80;99.90;;;;;;5059778;28;20048;-68
2022/06/07 06:30:11;;;;;;;2.00;0.73;;;12.70;99.90;;;;;;5061447;28;20029;-68
2022/06/07 06:32:36;;;;;;;2.03;0.88;;;12.70;99.90;;;;;;5059177;28;20039;-69
2022/06/07 06:35:03;;;;;;;1.48;0.50;;;12.70;99.90;;;;;;5061092;28;20479;-69
2022/06/07 06:37:29;;;;;;;0.32;0.20;;;12.60;99.90;;;;;;5059954;28;20041;-69
2022/06/07 06:39:55;;;;;;;1.55;0.82;;;12.60;99.90;;;;;;5060645;28;20025;-69
2022/06/07 06:42:21;;;;;;;1.55;0.50;;;12.40;99.90;;;;;;5059246;28;20078;-68
2022/06/07 06:44:46;;;;;;;0.93;0.38;;;12.30;99.90;;;;;;5058393;28;20021;-69
2022/06/07 06:47:13;;;;;;;1.52;0.75;;;12.30;99.90;;;;;;5059940;28;20036;-68
2022/06/07 06:49:42;;;;;;;1.20;0.68;;;12.40;99.90;;;;;;5058478;28;20064;-68
2022/06/07 06:52:12;;;;;;;2.13;0.55;;;12.30;99.90;;;;;;5061065;28;20036;-69
2022/06/07 06:54:38;;;;;;;2.60;1.08;;;12.40;99.90;;;;;;5059337;28;20065;-69
2022/06/07 06:57:04;;;;;;;1.48;0.77;;;12.40;99.90;;;;;;5060445;28;20029;-69
2022/06/07 06:59:31;;;;;;;0.85;0.47;;;12.40;99.90;;;;;;5060500;28;20029;-69
2022/06/07 07:01:57;;;;;;;1.20;0.43;;;12.50;99.90;;;;;;5059516;28;20028;-69
2022/06/07 07:04:24;;;;;;;1.85;0.68;;;12.50;99.90;;;;;;5061063;28;20048;-69
2022/06/07 07:06:50;;;;;;;1.98;0.75;;;12.60;99.90;;;;;;5058878;28;20025;-68
2022/06/07 07:09:22;;;;;;;1.17;0.70;;;12.70;99.90;;;;;;5059680;28;20021;-69
2022/06/07 07:11:51;;;;;;;1.67;0.55;;;12.80;99.90;;;;;;5059664;28;20021;-69
2022/06/07 07:14:17;;;;;;;1.30;0.65;;;12.80;99.90;;;;;;5060320;28;20021;-69
2022/06/07 07:16:50;;;;;;;1.80;1.10;;;12.90;99.90;;;;;;5060473;28;20028;-68
2022/06/07 07:19:17;;;;;;;0.70;0.35;;;12.90;99.90;;;;;;5058801;28;20116;-69
2022/06/07 07:21:46;;;;;;;0.65;0.30;;;13.00;99.90;;;;;;5060891;28;20029;-68
2022/06/07 07:24:15;;;;;;;0.75;0.30;;;13.00;99.90;;;;;;5060908;28;20055;-69
2022/06/07 07:26:43;;;;;;;0.68;0.30;;;13.00;99.90;;;;;;5064287;28;20031;-69
2022/06/07 07:29:11;;;;;;;1.15;0.63;;;13.00;99.90;;;;;;5063140;28;20024;-70
2022/06/07 07:31:37;;;;;;;1.35;0.77;;;13.00;99.90;;;;;;5063395;28;20672;-69
2022/06/07 07:34:07;;;;;;;0.57;0.30;;;13.00;99.90;;;;;;5064067;28;20046;-68
2022/06/07 07:36:34;;;;;;;0.95;0.47;;;13.00;99.90;;;;;;5062218;28;20120;-69
2022/06/07 07:39:00;;;;;;;0.95;0.47;;;13.00;99.90;;;;;;5064253;28;20039;-69
2022/06/07 07:41:29;;;;;;;0.50;0.30;;;13.00;99.90;;;;;;5062319;28;20029;-68
2022/06/07 07:44:00;;;;;;;0.75;0.50;;;13.00;99.90;;;;;;5063750;28;20473;-69
2022/06/07 07:46:29;;;;;;;1.10;0.32;;;13.00;99.90;;;;;;5063180;28;20021;-68
2022/06/07 07:48:56;;;;;;;1.17;0.73;;;13.00;99.90;;;;;;5062311;28;20040;-69
2022/06/07 07:51:30;;;;;;;2.47;0.65;;;13.00;99.90;;;;;;5063944;28;20021;-69
2022/06/07 07:53:57;;;;;;;0.90;0.40;;;13.00;99.90;;;;;;5061861;28;20112;-69
2022/06/07 07:56:25;;;;;;;0.60;0.30;;;13.10;99.90;;;;;;5063567;28;20068;-68
2022/06/07 07:58:51;;;;;;;1.20;0.50;;;13.20;99.90;;;;;;5060677;28;20112;-68
2022/06/07 08:01:21;;;;;;;0.38;0.30;;;13.20;99.90;;;;;;5063197;28;20077;-68
2022/06/07 08:03:48;;;;;;;1.55;0.68;;;13.10;99.90;;;;;;5063123;28;20021;-68
2022/06/07 08:06:17;;;;;;;0.80;0.40;;;13.20;99.90;;;;;;5062015;28;20033;-68
2022/06/07 08:08:44;;;;;;;0.20;0.20;;;13.30;99.90;;;;;;5063612;28;20469;-69
2022/06/07 08:11:10;;;;;;;1.75;0.82;;;13.20;99.90;;;;;;5061380;28;20032;-68
2022/06/07 08:13:36;;;;;;;1.13;0.55;;;13.30;99.90;;;;;;5063561;28;20021;-68
2022/06/07 08:16:04;;;;;;;0.93;0.40;;;13.30;99.90;;;;;;5061910;28;20037;-68
2022/06/07 08:18:30;;;;;;;0.88;0.38;;;13.20;99.90;;;;;;5062439;28;20033;-68
2022/06/07 08:20:59;;;;;;;0.43;0.32;;;13.20;99.90;;;;;;5062847;28;20021;-68
2022/06/07 08:23:25;;;;;;;1.20;0.45;;;13.20;99.90;;;;;;5061550;28;20032;-68
2022/06/07 08:25:51;;;;;;;1.17;0.45;;;13.20;99.90;;;;;;5063453;28;20028;-68
2022/06/07 08:28:17;;;;;;;0.77;0.30;;;13.20;99.90;;;;;;5061506;28;20040;-67
2022/06/07 08:30:45;;;;;;;0.98;0.40;;;13.20;99.90;;;;;;5063314;28;20078;-68
2022/06/07 08:38:41;;;;;;;0.95;0.40;;;13.30;99.90;;;;;;5063677;28;20091;-69
2022/06/07 08:41:17;;;;;;;0.28;0.20;;;13.40;99.90;;;;;;5061078;28;20036;-68
2022/06/07 08:43:43;;;;;;;2.67;1.10;;;13.30;99.90;;;;;;5062916;28;20028;-69
2022/06/07 08:46:12;;;;;;;1.30;0.68;;;13.40;99.90;;;;;;5061535;28;20029;-68
2022/06/07 08:48:40;;;;;;;0.80;0.35;;;13.30;99.90;;;;;;5061400;28;20045;-67
2022/06/07 08:51:17;;;;;;;1.20;0.30;;;13.40;99.90;;;;;;5062489;28;20051;-68
2022/06/07 08:53:50;;;;;;;0.57;0.30;;;13.40;99.90;;;;;;5060763;28;20032;-69
2022/06/07 08:56:20;;;;;;;0.35;0.30;;;13.40;99.90;;;;;;5062849;28;20037;-69
2022/06/07 08:58:49;;;;;;;1.70;0.80;;;13.40;99.90;;;;;;5060970;28;20140;-67
2022/06/07 09:01:18;;;;;;;1.23;0.50;;;13.40;99.90;;;;;;5062070;28;20488;-68
2022/06/07 09:04:29;;;;;;;2.13;0.50;;;13.40;99.90;;;;;;5061935;28;20033;-68
2022/06/07 09:07:03;;;;;;;0.38;0.30;;;13.30;99.90;;;;;;5038203;28;20083;-70
2022/06/07 09:12:31;;;;;;;1.23;0.40;;;13.20;99.90;;;;;;5061968;28;20059;-68
2022/06/07 09:15:10;;;;;;;1.23;0.40;;;13.20;99.90;;;;;;5060755;28;20029;-68
2022/06/07 09:17:45;;;;;;;1.08;0.60;;;13.20;99.90;;;;;;5062360;28;20029;-69
2022/06/07 09:20:18;;;;;;;1.10;0.52;;;13.10;99.90;;;;;;5060119;28;20040;-68
2022/06/07 09:22:50;;;;;;;1.05;0.50;;;13.10;99.90;;;;;;5061702;28;20029;-69
2022/06/07 09:25:23;;;;;;;1.95;0.43;;;13.20;99.90;;;;;;5061718;28;20063;-68
2022/06/07 09:27:49;;;;;;;0.93;0.38;;;13.10;99.90;;;;;;5060476;28;20025;-70
2022/06/07 09:30:28;;;;;;;1.02;0.40;;;13.10;99.90;;;;;;5062094;28;20074;-69
2022/06/07 09:32:53;;;;;;;0.73;0.30;;;13.10;99.90;;;;;;5058756;28;20055;-69
2022/06/07 09:35:34;;;;;;;0.70;0.30;;;13.10;99.90;;;;;;5061721;28;20036;-69
2022/06/07 09:38:14;;;;;;;0.40;0.22;;;13.10;99.90;;;;;;5061409;28;20033;-69
2022/06/07 09:40:54;;;;;;;1.70;0.65;;;13.20;99.90;;;;;;5060033;28;20056;-69
2022/06/07 09:43:27;;;;;;;1.48;0.60;;;13.30;99.90;;;;;;5061900;28;20032;-69
2022/06/07 09:45:57;;;;;;;0.47;0.30;;;13.30;99.90;;;;;;5060284;28;20070;-69
2022/06/07 09:48:29;;;;;;;0.90;0.50;;;13.40;99.90;;;;;;5060764;28;20025;-68
2022/06/07 09:51:06;;;;;;;1.02;0.32;;;13.50;99.90;;;;;;5061034;28;20036;-69
2022/06/07 09:53:38;;;;;;;0.77;0.30;;;13.60;99.90;;;;;;5060165;28;20480;-69
2022/06/07 09:56:39;;;;;;;1.88;0.77;;;13.40;99.90;;;;;;5061706;28;20067;-69
2022/06/07 09:59:26;;;;;;;1.05;0.47;;;13.40;99.90;;;;;;5060461;28;20541;-69
2022/06/07 10:02:04;;;;;;;0.77;0.43;;;13.50;99.90;;;;;;5060247;28;20024;-69
2022/06/07 10:04:50;;;;;;;0.60;0.30;;;13.40;99.90;;;;;;5061634;28;20088;-69
2022/06/07 10:07:40;;;;;;;0.90;0.50;;;13.30;99.90;;;;;;5060010;28;20021;-69
2022/06/07 10:10:26;;;;;;;0.77;0.30;;;13.20;99.90;;;;;;5060564;28;20079;-68
2022/06/07 10:13:03;;;;;;;1.10;0.40;;;13.20;99.90;;;;;;5059884;28;20029;-68
2022/06/07 10:15:30;;;;;;;0.70;0.30;;;13.20;99.90;;;;;;5057957;28;20416;-68
2022/06/07 10:18:16;;;;;;;0.73;0.30;;;13.20;99.90;;;;;;5059798;28;20448;-69
2022/06/07 10:21:00;;;;;;;1.02;0.35;;;13.20;99.90;;;;;;5060710;28;20024;-69
2022/06/07 10:23:47;;;;;;;1.67;0.70;;;13.20;99.90;;;;;;5059669;28;20104;-69
2022/06/07 10:26:32;;;;;;;0.20;0.20;;;13.40;99.90;;;;;;5061388;28;20025;-69
2022/06/07 10:29:12;;;;;;;0.43;0.28;;;13.40;99.90;;;;;;5059886;28;20032;-68
2022/06/07 10:32:20;;;;;;;0.57;0.35;;;13.60;99.90;;;;;;5060365;28;20127;-69
2022/06/07 10:34:58;;;;;;;0.57;0.45;;;13.70;99.90;;;;;;5059734;28;20073;-69
2022/06/07 10:37:51;;;;;;;0.38;0.30;;;13.70;99.90;;;;;;5059842;28;20405;-69
2022/06/07 10:40:25;;;;;;;0.60;0.47;;;13.70;99.90;;;;;;5059913;28;20025;-69
2022/06/07 10:42:57;;;;;;;1.20;0.50;;;13.70;99.90;;;;;;5061401;28;20067;-69
2022/06/07 10:45:26;;;;;;;;;;;13.60;99.90;;;;;;5059601;28;20021;-69
2022/06/07 10:47:56;;;;;;;0.68;0.32;;;13.60;99.90;;;;;;5061041;28;19909;-69
2022/06/07 10:50:39;;;;;;;0.45;0.25;;;13.50;99.90;;;;;;5059436;28;20013;-69
2022/06/07 10:53:22;;;;;;;1.63;0.73;;;13.50;99.90;;;;;;5059976;28;20025;-69
2022/06/07 10:55:54;;;;;;;0.90;0.40;;;13.40;99.90;;;;;;5061263;28;20033;-68
2022/06/07 10:58:35;;;;;;;0.98;0.43;;;13.40;99.90;;;;;;5060398;28;20487;-68
2022/06/07 11:01:06;;;;;;;0.30;0.20;;;13.30;99.90;;;;;;5064759;28;20032;-68
2022/06/07 11:03:59;;;;;;;1.17;0.50;;;13.30;99.90;;;;;;5062766;28;20017;-68
2022/06/07 11:09:54;;;;;;;0.60;0.20;;;13.30;99.90;;;;;;5063812;28;20048;-68
2022/06/07 11:12:29;;;;;;;0.38;0.22;;;13.30;99.90;;;;;;5064391;28;20035;-68
2022/06/07 11:15:32;;;;;;;0.28;0.20;;;13.30;99.90;;;;;;5063068;28;20025;-68
2022/06/07 11:17:57;;;;;;;0.28;0.20;;;13.20;99.90;;;;;;5065102;28;20025;-68
2022/06/07 11:20:34;;;;;;;0.52;0.30;;;13.20;99.90;;;;;;5063663;28;20130;-69
2022/06/07 11:23:14;;;;;;;0.55;0.25;;;13.10;99.90;;;;;;5063570;28;20039;-69
2022/06/07 11:26:02;;;;;;;0.77;0.30;;;13.10;99.90;;;;;;5064667;28;20112;-69
2022/06/07 11:28:33;;;;;;;0.52;0.30;;;13.10;99.90;;;;;;5063217;28;20033;-69
2022/06/07 11:31:21;;;;;;;0.45;0.28;;;13.10;99.90;;;;;;5064067;28;20476;-69
2022/06/07 11:33:53;;;;;;;0.57;0.30;;;13.10;99.90;;;;;;5064074;28;20566;-68
2022/06/07 11:36:24;;;;;;;0.45;0.30;;;13.00;99.90;;;;;;5062410;28;20077;-69
2022/06/07 11:39:17;;;;;;;0.38;0.20;;;12.90;99.90;;;;;;5064160;28;20136;-69
2022/06/07 11:41:51;;;;;;;0.50;0.22;;;13.00;99.90;;;;;;5062625;28;20085;-69
2022/06/07 11:44:16;;;;;;;2.97;0.45;;;13.00;99.90;;;;;;5063302;28;20040;-69
2022/06/07 11:46:51;;;;;;;0.15;0.15;;;12.90;99.90;;;;;;5063771;28;20020;-68
2022/06/07 11:49:23;;;;;;;0.75;0.30;;;13.00;99.90;;;;;;5061511;28;20032;-69
2022/06/07 11:52:05;;;;;;;0.25;0.20;;;13.00;99.90;;;;;;5064101;28;20041;-69
2022/06/07 11:54:35;;;;;;;0.80;0.30;;;13.00;99.90;;;;;;5062565;28;20029;-70
2022/06/07 11:57:23;;;;;;;0.52;0.30;;;13.00;99.90;;;;;;5063347;28;20040;-69
2022/06/07 11:59:52;;;;;;;1.92;0.60;;;13.10;99.90;;;;;;5063377;28;20049;-69
2022/06/07 12:02:17;;;;;;;0.77;0.30;;;13.10;99.90;;;;;;5061744;28;20504;-69
2022/06/07 12:04:43;;;;;;;0.20;0.20;;;13.20;99.90;;;;;;5063599;28;20041;-69
2022/06/07 12:07:32;;;;;;;0.55;0.30;;;13.20;99.90;;;;;;5061748;28;20085;-69
2022/06/07 12:10:20;;;;;;;1.40;0.65;;;13.30;99.90;;;;;;5062796;28;20473;-70
2022/06/07 12:12:58;;;;;;;0.60;0.38;;;13.40;99.90;;;;;;5059263;28;20029;-70
2022/06/07 12:15:39;;;;;;;0.93;0.57;;;13.60;99.90;;;;;;5061597;28;20089;-69
2022/06/07 12:18:21;;;;;;;0.43;0.20;;;13.60;99.90;;;;;;5063155;28;20032;-69
2022/06/07 12:21:07;;;;;;;0.57;0.22;;;13.60;99.90;;;;;;5062832;28;20025;-69
2022/06/07 12:23:38;;;;;;;0.95;0.45;;;13.50;99.90;;;;;;5061292;28;20036;-69
2022/06/07 12:26:19;;;;;;;0.70;0.40;;;13.60;99.90;;;;;;5062119;28;20025;-71
2022/06/07 12:28:57;;;;;;;0.80;0.30;;;13.60;99.90;;;;;;5061858;28;20066;-69
2022/06/07 12:31:33;;;;;;;0.35;0.20;;;13.50;99.90;;;;;;5062567;28;20438;-70
2022/06/07 12:34:02;;;;;;;0.30;0.20;;;13.60;99.90;;;;;;5061490;28;20489;-70
2022/06/07 12:36:34;;;;;;;0.17;0.17;;;13.70;99.90;;;;;;5061120;28;20120;-70
2022/06/07 12:39:13;;;;;;;0.80;0.30;;;13.60;99.90;;;;;;5063300;28;20025;-69
2022/06/07 12:41:47;;;;;;;0.38;0.20;;;13.60;99.90;;;;;;5061692;28;20494;-71
2022/06/07 12:44:21;;;;;;;0.30;0.20;;;13.70;99.90;;;;;;5062150;28;20032;-70
2022/06/07 12:46:47;;;;;;;0.28;0.20;;;13.60;99.90;;;;;;5062901;28;20052;-70
2022/06/07 12:49:21;;;;;;;0.65;0.35;;;13.50;99.90;;;;;;5059184;28;20029;-70
2022/06/07 12:51:58;;;;;;;0.85;0.50;;;13.60;99.90;;;;;;5062961;28;20020;-69
2022/06/07 12:54:24;;;;;;;0.70;0.30;;;13.70;99.90;;;;;;5061110;28;20040;-69
2022/06/07 12:56:52;;;;;;;1.00;0.47;;;13.80;99.90;;;;;;5062314;28;20061;-70
2022/06/07 12:59:41;;;;;;;0.98;0.30;;;13.90;99.90;;;;;;5062050;28;20082;-70
2022/06/07 13:02:18;;;;;;;1.05;0.50;;;13.90;99.90;;;;;;5060655;28;20107;-70
2022/06/07 13:04:48;;;;;;;0.30;0.20;;;14.10;99.90;;;;;;5062898;28;20028;-70
2022/06/07 13:07:24;;;;;;;0.70;0.28;;;14.20;99.90;;;;;;5061066;28;20080;-69
2022/06/07 13:09:58;;;;;;;0.30;0.20;;;14.30;99.90;;;;;;5061759;28;20021;-70
2022/06/07 13:12:34;;;;;;;0.20;0.20;;;14.30;99.90;;;;;;5062149;28;20432;-70
2022/06/07 13:15:02;;;;;;;0.75;0.43;;;14.20;99.90;;;;;;5060578;28;20048;-69
2022/06/07 13:17:38;;;;;;;1.75;0.57;;;14.20;99.90;;;;;;5062522;28;20029;-69
2022/06/07 13:20:07;;;;;;;0.95;0.50;;;14.20;99.90;;;;;;5060245;28;20017;-69
2022/06/07 13:22:45;;;;;;;1.40;0.63;;;14.30;99.90;;;;;;5061173;28;20093;-69
2022/06/07 13:25:35;;;;;;;1.55;0.47;;;14.30;99.90;;;;;;5061646;28;20353;-68
2022/06/07 13:28:17;;;;;;;1.52;0.43;;;14.30;99.90;;;;;;5059921;28;20095;-68
2022/06/07 13:30:45;;;;;;;0.20;0.20;;;14.30;99.90;;;;;;5062004;28;20428;-70